Time;durP1;ratioP1;P1;durP2;ratioP2;P2;SDS_P1;SDS_P2;PMS_P1;PMS_P2;Temp;Humidity;BMP_temperature;BMP_pressure;BME280_temperature;BME280_humidity;BME280_pressure;Samples;Min_cycle;Max_cycle;Signal;HPM_P1;HPM_P2
2022/11/23 00:01:18;;;;;;;;;;;;;;;11.42;74.70;96006.69;5078123;28;19920;-78
2022/11/23 00:03:46;;;;;;;;;;;;;;;11.28;74.85;95991.19;5088951;28;19920;-79
2022/11/23 00:06:13;;;;;;;;;;;;;;;11.22;75.74;96000.22;5087876;28;19952;-79
2022/11/23 00:08:41;;;;;;;;;;;;;;;11.20;75.68;95989.13;5087529;28;19924;-79
2022/11/23 00:11:09;;;;;;;;;;;;;;;11.13;76.02;95987.00;5089026;28;19959;-78
2022/11/23 00:13:38;;;;;;;;;;;;;;;11.09;76.05;95976.03;5087516;28;20003;-79
2022/11/23 00:16:10;;;;;;;;;;;;;;;11.11;76.73;95970.72;5088940;28;20426;-80
2022/11/23 00:18:37;;;;;;;;;;;;;;;11.07;76.78;95962.34;5089055;28;19927;-80
2022/11/23 00:21:05;;;;;;;;;;;;;;;11.17;76.44;95962.59;5087470;28;19926;-80
2022/11/23 00:23:32;;;;;;;;;;;;;;;11.08;78.09;95953.66;5091414;28;19924;-79
2022/11/23 00:25:59;;;;;;;;;;;;;;;10.97;78.05;95932.78;5088980;28;20030;-79
2022/11/23 00:28:26;;;;;;;;;;;;;;;11.02;79.00;95935.06;5089147;28;19926;-79
2022/11/23 00:30:53;;;;;;;;;;;;;;;10.98;79.03;95918.06;5088363;28;20011;-79
2022/11/23 00:33:20;;;;;;;;;;;;;;;10.92;80.50;95914.09;5087127;28;20011;-78
2022/11/23 00:35:48;;;;;;;;;;;;;;;10.97;80.56;95912.06;5088809;28;19919;-78
2022/11/23 00:38:14;;;;;;;;;;;;;;;10.78;80.93;95909.00;5086696;28;22304;-79
2022/11/23 00:40:42;;;;;;;;;;;;;;;10.58;81.23;95880.97;5087589;28;19926;-79
2022/11/23 00:43:09;;;;;;;;;;;;;;;10.76;81.33;95916.03;5086856;28;19919;-77
2022/11/23 00:45:36;;;;;;;;;;;;;;;10.77;81.63;95919.44;5088435;28;20383;-78
2022/11/23 00:48:06;;;;;;;;;;;;;;;10.67;82.27;95921.81;5088114;28;20396;-78
2022/11/23 00:50:35;;;;;;;;;;;;;;;10.75;81.99;95919.56;5088067;28;19920;-78
2022/11/23 00:53:05;;;;;;;;;;;;;;;10.82;82.08;95925.19;5088386;28;20260;-77
2022/11/23 00:55:33;;;;;;;;;;;;;;;10.86;81.67;95922.28;5086711;28;19962;-79
2022/11/23 00:58:01;;;;;;;;;;;;;;;10.88;81.80;95914.41;5088567;28;20510;-80
2022/11/23 01:00:28;;;;;;;;;;;;;;;10.94;82.24;95904.47;5120748;27;19920;-82
2022/11/23 01:02:56;;;;;;;;;;;;;;;10.95;82.24;95913.91;5120767;27;19939;-79
2022/11/23 01:05:22;;;;;;;;;;;;;;;10.99;81.90;95920.56;5088095;28;19920;-80
2022/11/23 01:07:49;;;;;;;;;;;;;;;11.00;82.64;95913.63;5087787;28;19924;-80
2022/11/23 01:10:16;;;;;;;;;;;;;;;10.91;82.79;95916.78;5085880;28;19955;-81
2022/11/23 01:12:43;;;;;;;;;;;;;;;10.91;83.04;95909.88;5103252;28;20390;-78
2022/11/23 01:15:13;;;;;;;;;;;;;;;11.03;82.69;95911.66;5103642;28;19970;-78
2022/11/23 01:17:40;;;;;;;;;;;;;;;11.04;83.06;95910.75;5087421;28;19920;-79
2022/11/23 01:20:08;;;;;;;;;;;;;;;11.11;82.82;95903.38;5089288;28;20353;-79
2022/11/23 01:22:38;;;;;;;;;;;;;;;11.10;83.45;95891.34;5120618;27;20404;-79
2022/11/23 01:25:05;;;;;;;;;;;;;;;10.87;84.42;95894.63;5087486;28;19924;-79
2022/11/23 01:27:36;;;;;;;;;;;;;;;10.95;84.35;95889.75;5086236;28;20014;-80
2022/11/23 01:30:04;;;;;;;;;;;;;;;11.01;85.05;95879.00;5103060;28;19927;-80
2022/11/23 01:32:33;;;;;;;;;;;;;;;11.11;84.19;95877.47;5088035;28;19920;-79
2022/11/23 01:35:00;;;;;;;;;;;;;;;11.22;84.59;95869.81;5086182;28;19920;-80
2022/11/23 01:37:28;;;;;;;;;;;;;;;11.24;84.12;95873.97;5087735;28;20063;-79
2022/11/23 01:39:55;;;;;;;;;;;;;;;11.30;84.20;95877.91;5086017;28;19969;-77
2022/11/23 01:42:36;;;;;;;;;;;;;;;11.22;84.25;95856.84;5087516;28;19956;-80
2022/11/23 01:45:22;;;;;;;;;;;;;;;11.37;84.36;95858.41;5121377;27;19920;-79
2022/11/23 01:47:49;;;;;;;;;;;;;;;11.32;84.98;95861.31;5087336;28;19974;-75
2022/11/23 03:03:17;;;;;;;;;;;;;;;11.19;88.40;95782.72;5031446;28;20432;-79
2022/11/23 03:06:15;;;;;;;;;;;;;;;11.23;87.98;95781.59;5072332;28;19927;-80
2022/11/23 03:09:22;;;;;;;;;;;;;;;11.26;87.99;95772.78;5093997;28;19967;-80
2022/11/23 03:11:49;;;;;;;;;;;;;;;11.20;88.34;95771.44;5068939;28;19986;-81
2022/11/23 03:14:17;;;;;;;;;;;;;;;11.37;87.90;95778.06;5070452;28;19970;-81
2022/11/23 03:16:51;;;;;;;;;;;;;;;11.41;87.31;95775.16;5104971;28;20036;-78
2022/11/23 03:19:19;;;;;;;;;;;;;;;11.31;87.51;95776.72;5068911;28;19927;-80
2022/11/23 03:21:48;;;;;;;;;;;;;;;11.36;87.84;95782.41;5068874;28;20380;-79
2022/11/23 03:24:16;;;;;;;;;;;;;;;11.09;88.31;95784.28;5070094;28;19927;-79
2022/11/23 03:26:44;;;;;;;;;;;;;;;11.18;88.53;95785.44;5068598;28;19952;-80
2022/11/23 03:29:17;;;;;;;;;;;;;;;11.11;88.50;95785.03;5068875;28;20304;-81
2022/11/23 03:31:45;;;;;;;;;;;;;;;11.15;88.23;95780.44;5067557;28;20019;-80
2022/11/23 03:34:15;;;;;;;;;;;;;;;11.06;88.22;95788.88;5068730;28;19920;-82
2022/11/23 03:36:44;;;;;;;;;;;;;;;11.06;88.70;95784.53;5068321;28;19920;-80
2022/11/23 03:39:12;;;;;;;;;;;;;;;11.11;88.70;95777.25;5068000;28;19925;-78
2022/11/23 03:41:58;;;;;;;;;;;;;;;10.98;89.98;95781.63;5096708;28;19920;-77
2022/11/23 03:44:33;;;;;;;;;;;;;;;11.08;89.63;95781.81;5067997;28;19924;-77
2022/11/23 03:47:02;;;;;;;;;;;;;;;11.18;89.54;95777.66;5068426;28;19920;-79
2022/11/23 03:49:29;;;;;;;;;;;;;;;11.13;89.42;95775.38;5068104;28;19921;-79
2022/11/23 03:51:57;;;;;;;;;;;;;;;11.11;89.34;95776.41;5068013;28;19969;-78
2022/11/23 03:54:26;;;;;;;;;;;;;;;11.08;89.18;95774.03;5067847;28;19920;-77
2022/11/23 03:56:53;;;;;;;;;;;;;;;11.08;89.14;95761.94;5084820;28;19942;-78
2022/11/23 03:59:20;;;;;;;;;;;;;;;10.96;89.47;95767.94;5067478;28;19920;-78
2022/11/23 04:01:49;;;;;;;;;;;;;;;11.12;89.36;95763.38;5084243;28;19920;-78
2022/11/23 04:04:21;;;;;;;;;;;;;;;11.19;88.92;95758.59;5069431;28;19920;-80
2022/11/23 04:07:19;;;;;;;;;;;;;;;11.16;88.43;95759.63;5067312;28;19931;-79
2022/11/23 04:09:50;;;;;;;;;;;;;;;11.20;88.26;95761.09;5084752;28;19920;-79
2022/11/23 04:12:40;;;;;;;;;;;;;;;10.96;88.84;95720.47;5071237;28;20493;-78
2022/11/23 04:15:08;;;;;;;;;;;;;;;11.08;89.84;95756.75;5084759;28;20027;-80
2022/11/23 04:17:35;;;;;;;;;;;;;;;10.97;89.21;95748.88;5067872;28;19920;-80
2022/11/23 04:20:03;;;;;;;;;;;;;;;11.18;88.76;95755.19;5100836;28;20322;-79
2022/11/23 04:22:31;;;;;;;;;;;;;;;11.16;88.85;95756.22;5084577;28;19920;-79
2022/11/23 04:24:58;;;;;;;;;;;;;;;11.09;89.57;95755.81;5068670;28;19921;-78
2022/11/23 04:27:25;;;;;;;;;;;;;;;11.04;89.19;95755.31;5067073;28;19975;-79
2022/11/23 04:29:53;;;;;;;;;;;;;;;11.01;89.58;95750.31;5067281;28;19932;-79
2022/11/23 04:32:21;;;;;;;;;;;;;;;11.11;89.56;95747.91;5067041;28;20027;-79
2022/11/23 04:34:48;;;;;;;;;;;;;;;11.11;89.07;95740.13;5101147;28;20375;-77
2022/11/23 04:37:15;;;;;;;;;;;;;;;10.99;89.52;95738.38;5101125;28;19920;-79
2022/11/23 04:39:43;;;;;;;;;;;;;;;10.88;90.37;95730.53;5085617;28;19920;-79
2022/11/23 04:42:29;;;;;;;;;;;;;;;11.02;89.96;95728.66;5075298;28;19924;-78
2022/11/23 04:44:59;;;;;;;;;;;;;;;11.08;90.37;95733.44;5063664;28;19924;-78
2022/11/23 04:47:29;;;;;;;;;;;;;;;11.12;90.56;95734.88;5087087;28;20409;-77
2022/11/23 04:50:00;;;;;;;;;;;;;;;11.15;89.43;95724.28;5103932;28;20000;-77
2022/11/23 04:52:29;;;;;;;;;;;;;;;11.11;89.48;95720.25;5087448;28;19926;-79
2022/11/23 04:54:57;;;;;;;;;;;;;;;11.12;89.51;95715.91;5086907;28;19919;-78
2022/11/23 04:57:25;;;;;;;;;;;;;;;11.01;90.46;95710.63;5086727;28;19920;-78
2022/11/23 04:59:53;;;;;;;;;;;;;;;11.07;90.25;95713.63;5121007;27;20009;-78
2022/11/23 05:02:22;;;;;;;;;;;;;;;11.13;90.11;95713.19;5087011;28;19943;-77
2022/11/23 05:05:09;;;;;;;;;;;;;;;11.18;89.69;95715.47;5083873;28;20304;-77
2022/11/23 05:07:37;;;;;;;;;;;;;;;11.11;89.90;95720.25;5121085;27;19926;-81
2022/11/23 05:10:07;;;;;;;;;;;;;;;11.17;90.38;95716.44;5069913;28;20288;-78
2022/11/23 05:12:37;;;;;;;;;;;;;;;11.21;89.82;95716.09;5069760;28;19927;-78
2022/11/23 05:15:06;;;;;;;;;;;;;;;11.22;90.16;95727.28;5086923;28;19920;-77
2022/11/23 05:17:36;;;;;;;;;;;;;;;11.19;90.05;95732.69;5120676;27;19920;-79
2022/11/23 05:20:11;;;;;;;;;;;;;;;11.19;89.84;95732.69;5086630;28;19928;-77
2022/11/23 05:22:43;;;;;;;;;;;;;;;11.30;89.62;95736.19;5069725;28;19920;-77
2022/11/23 05:25:13;;;;;;;;;;;;;;;11.22;89.97;95730.72;5086289;28;19924;-79
2022/11/23 05:27:49;;;;;;;;;;;;;;;11.15;90.00;95736.41;5070542;28;20708;-81
2022/11/23 05:30:18;;;;;;;;;;;;;;;11.14;90.44;95743.38;5069983;28;20554;-80
2022/11/23 05:32:46;;;;;;;;;;;;;;;11.11;89.88;95740.13;5087813;28;20027;-79
2022/11/23 05:35:16;;;;;;;;;;;;;;;11.16;90.41;95749.28;5087462;28;19920;-76
2022/11/23 05:37:44;;;;;;;;;;;;;;;11.21;90.10;95746.38;5086512;28;19970;-79
2022/11/23 05:40:12;;;;;;;;;;;;;;;11.25;89.47;95742.63;5069981;28;19920;-77
2022/11/23 05:42:40;;;;;;;;;;;;;;;11.23;89.82;95744.50;5104597;28;19947;-80
2022/11/23 05:45:17;;;;;;;;;;;;;;;11.27;89.70;95751.94;5070439;28;19927;-80
2022/11/23 05:47:51;;;;;;;;;;;;;;;11.25;89.68;95737.47;5072215;28;19927;-79
2022/11/23 05:50:26;;;;;;;;;;;;;;;11.06;90.40;95730.13;5070778;28;19938;-78
2022/11/23 05:53:14;;;;;;;;;;;;;;;10.85;91.74;95723.81;5087331;28;19927;-77
2022/11/23 05:55:44;;;;;;;;;;;;;;;10.68;92.93;95724.09;5069268;28;19920;-79
2022/11/23 05:58:12;;;;;;;;;;;;;;;10.69;92.63;95722.34;5106418;28;19927;-80
2022/11/23 06:00:42;;;;;;;;;;;;;;;10.67;93.00;95725.03;5073410;28;19927;-78
2022/11/23 06:03:12;;;;;;;;;;;;;;;10.74;93.21;95715.13;5074299;28;19928;-80
2022/11/23 06:05:46;;;;;;;;;;;;;;;10.63;93.16;95724.41;5090136;28;19926;-80
2022/11/23 06:08:28;;;;;;;;;;;;;;;10.68;93.72;95741.38;5095420;28;19920;-79
2022/11/23 06:11:02;;;;;;;;;;;;;;;10.82;93.42;95757.66;5092294;28;19920;-80
2022/11/23 06:13:33;;;;;;;;;;;;;;;10.96;92.98;95762.75;5072667;28;19971;-80
2022/11/23 06:16:09;;;;;;;;;;;;;;;11.09;92.37;95760.97;5087759;28;19963;-77
2022/11/23 06:18:48;;;;;;;;;;;;;;;11.16;91.73;95756.22;5105140;28;20647;-76
2022/11/23 06:21:23;;;;;;;;;;;;;;;11.21;91.28;95760.13;5108935;28;19935;-78
2022/11/23 06:23:53;;;;;;;;;;;;;;;11.25;90.87;95759.00;5113939;28;19927;-78
2022/11/23 06:26:36;;;;;;;;;;;;;;;11.13;91.46;95754.66;5082073;28;20163;-77
2022/11/23 06:29:10;;;;;;;;;;;;;;;11.24;90.86;95756.50;5080077;28;19920;-79
2022/11/23 06:31:47;;;;;;;;;;;;;;;11.32;90.83;95751.63;5078050;28;19999;-76
2022/11/23 06:34:16;;;;;;;;;;;;;;;11.32;90.66;95739.50;5079418;28;19920;-78
2022/11/23 06:37:00;;;;;;;;;;;;;;;11.24;91.00;95736.63;5096921;28;19923;-77
2022/11/23 06:39:46;;;;;;;;;;;;;;;11.19;91.82;95749.06;5093508;28;19984;-76
2022/11/23 06:42:19;;;;;;;;;;;;;;;11.27;91.16;95757.13;5093584;28;19920;-77
2022/11/23 06:45:31;;;;;;;;;;;;;;;11.37;91.07;95747.78;5093661;28;19927;-78
2022/11/23 06:48:09;;;;;;;;;;;;;;;11.40;91.35;95751.91;5110305;28;19920;-76
2022/11/23 06:50:44;;;;;;;;;;;;;;;11.37;90.69;95754.75;5095979;28;19926;-78
2022/11/23 06:53:19;;;;;;;;;;;;;;;11.42;91.28;95775.97;5087450;28;19927;-80
2022/11/23 06:55:52;;;;;;;;;;;;;;;11.47;90.75;95768.72;5086306;28;19920;-80
2022/11/23 06:58:20;;;;;;;;;;;;;;;11.45;90.73;95773.19;5085381;28;20387;-79
2022/11/23 07:00:47;;;;;;;;;;;;;;;11.44;91.41;95774.09;5084996;28;19927;-79
2022/11/23 07:03:19;;;;;;;;;;;;;;;11.52;90.77;95778.78;5101962;28;19927;-81
2022/11/23 07:05:49;;;;;;;;;;;;;;;11.54;90.58;95776.91;5085376;28;20377;-78
2022/11/23 07:08:19;;;;;;;;;;;;;;;11.58;90.31;95786.13;5088728;28;19947;-80
2022/11/23 07:10:47;;;;;;;;;;;;;;;11.66;89.88;95789.88;5092504;28;19996;-79
2022/11/23 07:13:15;;;;;;;;;;;;;;;11.55;90.00;95804.47;5112241;28;19920;-79
2022/11/23 07:15:46;;;;;;;;;;;;;;;11.55;90.00;95788.91;5111644;28;19920;-82
2022/11/23 07:18:27;;;;;;;;;;;;;;;11.47;91.15;95794.66;5089693;28;19973;-79
2022/11/23 07:20:59;;;;;;;;;;;;;;;11.48;90.72;95785.91;5090545;28;19924;-78
2022/11/23 07:23:28;;;;;;;;;;;;;;;11.54;90.65;95788.09;5090004;28;19955;-79
2022/11/23 07:26:31;;;;;;;;;;;;;;;11.63;90.34;95779.69;5102157;28;19924;-82
2022/11/23 07:28:59;;;;;;;;;;;;;;;11.64;90.67;95785.69;5088676;28;20391;-78
2022/11/23 07:31:36;;;;;;;;;;;;;;;11.58;90.28;95784.34;5104661;28;20418;-79
2022/11/23 07:34:04;;;;;;;;;;;;;;;11.65;90.33;95780.41;5093570;28;19924;-77
2022/11/23 07:36:38;;;;;;;;;;;;;;;11.66;90.30;95789.00;5087025;28;19926;-80
2022/11/23 07:39:10;;;;;;;;;;;;;;;11.70;90.13;95780.09;5106093;28;19920;-78
2022/11/23 07:41:42;;;;;;;;;;;;;;;11.76;90.50;95779.69;5139698;27;20232;-78
2022/11/23 07:44:19;;;;;;;;;;;;;;;11.67;90.63;95775.13;5088302;28;19919;-77
2022/11/23 07:47:11;;;;;;;;;;;;;;;11.82;90.20;95776.66;5103779;28;19919;-81
2022/11/23 07:49:52;;;;;;;29.40;17.43;;;;;;;11.83;90.30;95778.31;5098976;28;20065;-78
2022/11/23 07:52:21;;;;;;;;;;;;;;;11.90;89.36;95772.56;5083535;28;20085;-77
2022/11/23 07:54:48;;;;;;;;;;;;;;;11.90;89.79;95776.94;5097511;28;20238;-78
2022/11/23 07:57:19;;;;;;;;;;;;;;;11.93;89.94;95779.31;5081682;28;19920;-77
2022/11/23 07:59:56;;;;;;;;;;;;;;;11.93;90.25;95781.91;5099181;28;20298;-78
2022/11/23 08:02:45;;;;;;;;;;;;;;;12.00;89.62;95783.97;5115442;27;19955;-77
2022/11/23 08:05:26;;;;;;;;;;;;;;;11.98;90.01;95790.19;5092837;28;19919;-75
2022/11/23 08:08:00;;;;;;;;;;;;;;;12.01;90.17;95779.59;5130219;27;19924;-78
2022/11/23 08:10:32;;;;;;;;;;;;;;;12.00;90.01;95783.13;5095396;28;19920;-80
2022/11/23 08:13:05;;;;;;;;;;;;;;;12.00;89.69;95783.97;5108812;28;19955;-77
2022/11/23 08:15:35;;;;;;;;;;;;;;;11.94;90.23;95783.56;5094351;28;20149;-79
2022/11/23 08:18:03;;;;;;;;;;;;;;;11.96;89.76;95790.31;5081217;28;19954;-78
2022/11/23 08:20:35;;;;;;;;;;;;;;;11.89;90.68;95785.66;5112299;28;19950;-77
2022/11/23 08:23:16;;;;;;;;;;;;;;;11.91;89.90;95784.59;5097878;28;19920;-79
2022/11/23 08:25:48;;;;;;;;;;;;;;;11.97;90.20;95784.16;5093075;28;19920;-78
2022/11/23 08:28:29;;;;;;;;;;;;;;;11.94;90.13;95783.56;5091356;28;20329;-80
2022/11/23 08:30:57;;;;;;;;;;;;;;;11.92;89.99;95775.91;5086848;28;20383;-78
2022/11/23 08:33:24;;;;;;;;;;;;;;;11.98;90.32;95775.44;5070012;28;19952;-80
2022/11/23 08:35:51;;;;;;;;;;;;;;;11.91;90.46;95784.59;5086608;28;19927;-79
2022/11/23 08:38:22;;;;;;;;;;;;;;;12.02;90.41;95786.44;5088132;28;19920;-80
2022/11/23 08:40:50;;;;;;;;;;;;;;;12.07;90.41;95776.56;5088424;28;20119;-79
2022/11/23 08:43:17;;;;;;;;;;;;;;;11.98;90.06;95772.84;5088181;28;19920;-80
2022/11/23 08:45:49;;;;;;;;;;;;;;;11.95;90.78;95770.47;5087010;28;19985;-82
2022/11/23 08:48:33;;;;;;;;;;;;;;;12.01;90.56;95769.22;5120633;27;19920;-80
2022/11/23 08:51:03;;;;;;;;;;;;;;;12.06;89.99;95774.91;5088131;28;19952;-80
2022/11/23 08:53:33;;;;;;;;;;;;;;;12.01;90.47;95788.19;5087469;28;20330;-79
2022/11/23 08:56:03;;;;;;;;;;;;;;;12.09;90.18;95792.84;5103515;28;19967;-80
2022/11/23 08:58:31;;;;;;;;;;;;;;;12.15;90.49;95792.41;5088278;28;19924;-79
2022/11/23 09:01:06;;;;;;;;;;;;;;;12.04;91.23;95792.34;5086596;28;20030;-82
2022/11/23 09:03:33;;;;;;;;;;;;;;;12.08;90.91;95801.56;5089538;28;19920;-79
2022/11/23 09:06:01;;;;;;;;;;;;;;;12.13;91.33;95791.69;5090834;28;19927;-80
2022/11/23 09:08:31;;;;;;;;;;;;;;;12.21;90.63;95789.38;5069515;28;19967;-78
2022/11/23 09:11:05;;;;;;;;;;;;;;;12.22;90.71;95789.25;5087898;28;19920;-77
2022/11/23 09:13:34;;;;;;;;;;;;;;;12.26;90.68;95784.69;5086157;28;19920;-79
2022/11/23 09:16:02;;;;;;;;;;;;;;;12.27;90.39;95768.16;5087608;28;20392;-80
2022/11/23 09:18:58;;;;;;;;;;;;;;;12.34;90.03;95764.19;5087106;28;20023;-79
2022/11/23 09:21:29;;;;;;;;;;;;;;;12.19;90.45;95754.91;5102537;28;19928;-78
2022/11/23 09:23:57;;;;;;;;;;;;;;;12.21;91.05;95745.25;5086108;28;20411;-79
2022/11/23 09:26:25;;;;;;;;;;;;;;;12.30;90.77;95738.56;5087042;28;20376;-80
2022/11/23 09:28:53;;;;;;;;;;;;;;;12.23;91.13;95733.00;5119795;27;20285;-79
2022/11/23 09:31:20;;;;;;;;;;;;;;;12.34;90.87;95743.44;5086639;28;19923;-78
2022/11/23 09:33:51;;;;;;;;;;;;;;;12.32;90.14;95736.69;5086694;28;19939;-78
2022/11/23 09:36:18;;;;;;;;;;;;;;;12.47;90.14;95751.94;5086722;28;19960;-79
2022/11/23 09:38:45;;;;;;;;;;;;;;;12.49;89.99;95750.06;5085599;28;19980;-77
2022/11/23 09:41:48;;;;;;;;;;;;;;;12.54;89.69;95757.53;5087144;28;19919;-80
2022/11/23 09:44:16;;;;;;;;;;;;;;;12.61;89.89;95746.56;5065413;28;19920;-81
2022/11/23 09:46:46;;;;;;;;;;;;;;;12.52;89.78;95752.44;5087228;28;19956;-80
2022/11/23 09:49:21;;;;;;;;;;;;;;;12.53;90.60;95738.50;5087159;28;19999;-79
2022/11/23 09:51:49;;;;;;;;;;;;;;;12.55;89.93;95744.41;5069313;28;19977;-79
2022/11/23 09:54:27;;;;;;;;;;;;;;;12.49;90.52;95749.25;5087376;28;19955;-80
2022/11/23 09:56:56;;;;;;;;;;;;;;;12.49;90.50;95739.69;5102405;28;20326;-79
2022/11/23 09:59:33;;;;;;;;;;;;;;;12.59;90.62;95739.84;5087382;28;19920;-79
2022/11/23 10:02:02;;;;;;;;;;;;;;;12.57;90.49;95737.34;5119801;27;19942;-83
2022/11/23 10:04:49;;;;;;;;;;;;;;;12.68;89.64;95729.59;5103815;28;19920;-81
2022/11/23 10:07:56;;;;;;;;;;;;;;;12.64;90.11;95719.53;5088010;28;19920;-78
2022/11/23 10:10:55;;;;;;;;;;;;;;;12.60;89.69;95720.72;5065741;28;19962;-79
2022/11/23 10:13:22;;;;;;;;;;;;;;;12.66;89.73;95720.25;5063308;28;19998;-78
2022/11/23 10:16:01;;;;;;;;;;;;;;;12.62;89.41;95713.63;5087073;28;19981;-78
2022/11/23 10:18:34;;;;;;;;;;;;;;;12.68;89.53;95719.19;5086996;28;19927;-81
2022/11/23 10:21:20;;;;;;;;;;;;;;;12.66;89.35;95715.88;5068923;28;19920;-76
2022/11/23 10:23:51;;;;;;;;;;;;;;;12.71;90.14;95703.41;5085453;28;20297;-79
2022/11/23 10:26:19;;;;;;;;;;;;;;;12.68;90.14;95698.41;5085276;28;19920;-80
2022/11/23 10:28:48;;;;;;;;;;;;;;;12.84;89.72;95701.50;5086573;28;19934;-79
2022/11/23 10:31:42;;;;;;;;;;;;;;;12.95;89.21;95695.50;5086797;28;19916;-78
2022/11/23 10:34:09;;;;;;;;;;;;;;;13.01;88.73;95695.03;5085260;28;19970;-81
2022/11/23 10:36:39;;;;;;;;;;;;;;;13.02;88.84;95700.09;5085301;28;19920;-80
2022/11/23 10:39:24;;;;;;;;;;;;;;;13.12;88.50;95696.84;5119096;28;20379;-79
2022/11/23 10:42:45;;;;;;;;;;;;;;;12.92;87.95;95664.56;5116479;27;20299;-82
2022/11/23 10:45:37;;;;;;;;;;;;;;;13.22;87.50;95701.22;5090914;28;19920;-81
2022/11/23 10:48:07;;;;;;;;;;;;;;;13.25;88.12;95703.56;5072399;28;19920;-79
2022/11/23 10:50:43;;;;;;;;;;;;;;;13.17;87.66;95705.13;5105815;28;19920;-82
2022/11/23 10:54:03;;;;;;;;;;;;;;;13.13;88.78;95709.72;5112047;27;20364;-83
2022/11/23 10:57:46;;;;;;;;;;;;;;;12.98;89.76;95701.28;5089642;28;19952;-81
2022/11/23 11:01:04;;;;;;;;;;;;;;;13.27;89.41;95698.25;5030515;28;19921;-78
2022/11/23 11:03:35;;;;;;;;;;;;;;;13.26;88.81;95704.38;5069332;28;19930;-81
2022/11/23 11:06:03;;;;;;;;;;;;;;;13.21;89.12;95703.94;5094588;28;20013;-78
2022/11/23 11:08:58;;;;;;;;;;;;;;;13.33;88.34;95705.59;5088651;28;19970;-79
2022/11/23 11:11:31;;;;;;;;;;;;;;;13.26;88.86;95704.38;5088609;28;19920;-79
2022/11/23 11:14:26;;;;;;;;;;;;;;;13.37;88.98;95694.00;5071790;28;19969;-80
2022/11/23 11:16:59;;;;;;;;;;;;;;;13.30;88.15;95696.25;5085873;28;19928;-81
2022/11/23 11:19:31;;;;;;;;;;;;;;;13.39;88.37;95699.91;5089078;28;20758;-78
2022/11/23 11:22:34;;;;;;;;;;;;;;;13.22;88.02;95708.16;5090294;28;19920;-78
2022/11/23 11:25:06;;;;;;;;;;;;;;;13.23;88.44;95699.44;5088579;28;20460;-77
2022/11/23 11:27:36;;;;;;;;;;;;;;;13.19;88.92;95703.22;5089813;28;19977;-78
2022/11/23 11:30:06;;;;;;;;;;;;;;;13.13;88.01;95695.91;5089230;28;19947;-77
2022/11/23 11:32:33;;;;;;;;;;;;;;;13.15;88.55;95701.81;5089218;28;19920;-78
2022/11/23 11:35:14;;;;;;;;;;;;;;;13.26;89.33;95694.81;5122565;27;20411;-80
2022/11/23 11:37:52;;;;;;;;;;;;;;;13.35;87.86;95695.88;5120069;27;20015;-81
2022/11/23 11:40:36;;;;;;;;;;;;;;;13.66;87.47;95697.75;5087882;28;20026;-79
2022/11/23 11:43:14;;;;;;;;;;;;;;;13.69;87.04;95687.91;5089451;28;20027;-80
2022/11/23 11:45:43;;;;;;;;;;;;;;;13.86;85.64;95690.00;5088008;28;19919;-80
2022/11/23 11:48:38;;;;;;;;;;;;;;;13.95;84.28;95688.41;5104700;28;19955;-79
2022/11/23 11:51:06;;;;;;;;;;;;;;;13.96;83.95;95684.88;5121913;27;20012;-80
2022/11/23 11:53:42;;;;;;;;;;;;;;;13.88;83.73;95690.69;5087841;28;19979;-81
2022/11/23 11:56:43;;;;;;;;;;;;;;;13.75;84.18;95700.44;5106061;28;20289;-84
2022/11/23 12:00:37;;;;;;;;;;;;;;;13.81;85.14;95701.69;5048329;28;20367;-84
2022/11/23 12:03:52;;;;;;;;;;;;;;;12.66;85.10;95562.66;5077542;28;20407;-79
2022/11/23 12:06:38;;;;;;;;;;;;;;;13.73;85.10;95704.09;5075584;28;20433;-77
2022/11/23 12:09:10;;;;;;;;;;;;;;;13.68;85.13;95703.66;5089037;28;20391;-78
2022/11/23 12:11:50;;;;;;;;;;;;;;;13.66;84.65;95703.75;5088349;28;19981;-83
2022/11/23 12:14:50;;;;;;;;;;;;;;;13.75;85.06;95703.03;5087971;28;19924;-80
2022/11/23 12:17:45;;;;;;;;;;;;;;;13.68;85.39;95707.03;5087884;28;19925;-80
2022/11/23 12:20:37;;;;;;;;;;;;;;;13.79;84.60;95703.59;5088131;28;19928;-79
2022/11/23 12:23:23;;;;;;;;;;;;;;;13.60;85.57;95709.44;5120878;27;19924;-79
2022/11/23 12:25:56;;;;;;;;;;;;;;;13.79;85.19;95703.59;5088380;28;19924;-79
2022/11/23 12:28:27;;;;;;;;;;;;;;;13.80;85.14;95707.88;5087980;28;20357;-79
2022/11/23 12:31:05;;;;;;;;;;;;;;;13.86;84.31;95707.38;5088277;28;20051;-78
2022/11/23 12:34:04;;;;;;;;;;;;;;;13.91;84.52;95715.63;5087906;28;19924;-79
2022/11/23 12:37:04;;;;;;;;;;;;;;;14.06;84.36;95717.00;5059266;28;20304;-76
2022/11/23 12:39:32;;;;;;;;;;;;;;;14.01;84.80;95723.53;5103267;28;20376;-78
2022/11/23 12:42:19;;;;;;;;;;;;;;;13.96;84.94;95720.47;5087872;28;19924;-81
2022/11/23 12:45:06;;;;;;;;;;;;;;;13.63;85.46;95718.78;5086950;28;19938;-79
2022/11/23 12:47:42;;;;;;;;;;;;;;;13.48;86.70;95720.81;5088002;28;19928;-77
2022/11/23 12:50:20;;;;;;;;;;;;;;;13.43;86.44;95722.13;5087950;28;19974;-78
2022/11/23 12:53:07;;;;;;;;;;;;;;;13.49;86.50;95726.84;5087604;28;20042;-76
2022/11/23 12:55:46;;;;;;;;;;;;;;;13.52;87.08;95734.38;5087979;28;19928;-79
2022/11/23 12:58:19;;;;;;;;;;;;;;;13.44;87.76;95735.00;5088446;28;20326;-77
2022/11/23 13:00:51;;;;;;;;;;;;;;;13.48;87.81;95736.41;5088036;28;19971;-80
2022/11/23 13:03:38;;;;;;;;;;;;;;;13.68;87.11;95737.47;5088192;28;19989;-80
2022/11/23 13:06:29;;;;;;;;;;;;;;;13.70;86.66;95732.97;5088400;28;20018;-80
2022/11/23 13:09:47;;;;;;;;;;;;;;;13.69;85.26;95741.69;5091524;28;19946;-77
2022/11/23 13:12:22;;;;;;;;;;;;;;;13.90;84.34;95734.81;5086420;28;19973;-80
2022/11/23 13:14:55;;;;;;;;;;;;;;;13.81;84.36;95743.34;5087809;28;19932;-79
2022/11/23 13:17:33;;;;;;;;;;;;;;;14.01;83.69;95732.19;5087697;28;19924;-79
2022/11/23 13:20:10;;;;;;;;;;;;;;;14.05;83.10;95738.81;5086294;28;19924;-79
2022/11/23 13:22:43;;;;;;;;;;;;;;;14.00;82.80;95738.34;5087455;28;19931;-77
2022/11/23 13:25:11;;;;;;;;;;;;;;;13.90;82.08;95742.63;5087066;28;20369;-77
2022/11/23 13:27:42;;;;;;;;;;;;;;;13.97;81.92;95738.59;5087418;28;19978;-79
2022/11/23 13:30:24;;;;;;;;;;;;;;;13.95;81.71;95735.25;5086379;28;19924;-80
2022/11/23 13:33:17;;;;;;;;;;;;;;;13.92;81.82;95747.69;5086629;28;19924;-77
2022/11/23 13:35:54;;;;;;;;;;;;;;;13.98;81.29;95742.84;5117483;27;20014;-79
2022/11/23 13:38:23;;;;;;;;;;;;;;;14.04;81.56;95731.09;5087137;28;19943;-79
2022/11/23 13:40:51;;;;;;;;;;;;;;;13.99;82.20;95731.50;5085879;28;19924;-77
2022/11/23 13:43:22;;;;;;;;;;;;;;;14.20;81.86;95727.13;5102459;28;19924;-79
2022/11/23 13:46:07;;;;;;;;;;;;;;;14.22;81.71;95730.44;5087355;28;19931;-79
2022/11/23 13:48:46;;;;;;;;;;;;;;;14.25;81.34;95734.59;5087085;28;19974;-78
2022/11/23 13:51:28;;;;;;;;;;;;;;;14.17;81.58;95740.41;5087395;28;19924;-78
2022/11/23 13:54:02;;;;;;;;;;;;;;;13.91;83.56;95746.84;5086121;28;19928;-78
2022/11/23 13:56:41;;;;;;;;;;;;;;;13.92;83.61;95751.13;5086969;28;19974;-79
2022/11/23 13:59:23;;;;;;;;;;;;;;;13.96;83.48;95752.53;5088302;28;19989;-82
2022/11/23 14:02:12;;;;;;;;;;;;;;;14.07;83.00;95747.31;5087040;28;19931;-80
2022/11/23 14:04:43;;;;;;;;;;;;;;;14.12;83.05;95747.75;5120472;28;19924;-79
2022/11/23 14:07:18;;;;;;;;;;;;;;;14.26;82.82;95744.88;5102174;28;19925;-79
2022/11/23 14:09:50;;;;;;;;;;;;;;;14.20;82.62;95753.16;5092586;28;19954;-77
2022/11/23 14:12:17;;;;;;;;;;;;;;;14.06;83.20;95752.63;5085452;28;20444;-78
2022/11/23 14:14:44;;;;;;;;;;;;;;;13.99;83.48;95747.09;5119600;28;19938;-80
2022/11/23 14:17:22;;;;;;;;;;;;;;;14.03;83.29;95751.13;5121804;27;20433;-80
2022/11/23 14:20:09;;;;;;;;;;;;;;;13.74;84.72;95750.00;5091232;28;19974;-79
2022/11/23 14:23:41;;;;;;;;;;;;;;;13.71;84.70;95752.81;5091477;28;20007;-81
2022/11/23 14:26:27;;;;;;;;;;;;;;;13.72;85.05;95755.28;5124502;27;19924;-80
2022/11/23 14:29:14;;;;;;;;;;;;;;;13.80;84.71;95752.94;5089966;28;20018;-79
2022/11/23 14:32:22;;;;;;;;;;;;;;;13.77;84.78;95753.16;5091235;28;19954;-81
2022/11/23 14:35:14;;;;;;;;;;;;;;;13.70;84.98;95756.38;5031734;28;20611;-80
2022/11/23 14:37:46;;;;;;;;;;;;;;;13.66;85.78;95760.16;5033822;28;19936;-80
2022/11/23 14:40:36;;;;;;;;;;;;;;;13.72;85.44;95763.09;5066642;28;20005;-79
2022/11/23 14:43:11;;;;;;;;;;;;;;;13.68;85.64;95766.09;5090362;28;20099;-81